createdAt,value
2019-03-05T00:01:49.144Z,5.27
2019-03-05T00:04:18.709Z,5.87
2019-03-05T00:06:48.987Z,6.43
2019-03-05T00:09:20.376Z,5.90
2019-03-05T00:11:50.168Z,5.60
2019-03-05T00:14:22.843Z,6.63
2019-03-05T00:16:52.605Z,6.33
2019-03-05T00:19:22.360Z,5.90
2019-03-05T00:21:52.260Z,7.17
2019-03-05T00:25:01.739Z,7.20
2019-03-05T00:27:33.838Z,6.53
2019-03-05T00:30:35.247Z,6.07
2019-03-05T00:33:47.274Z,7.07
2019-03-05T00:36:30.352Z,6.60
2019-03-05T00:39:25.707Z,6.50
2019-03-05T00:42:49.847Z,6.30
2019-03-05T00:45:51.450Z,5.77
2019-03-05T00:48:42.258Z,6.63
2019-03-05T00:51:33.796Z,6.60
2019-03-05T00:54:19.900Z,6.77
2019-03-05T00:57:17.890Z,7.23
2019-03-05T01:00:07.004Z,6.43
2019-03-05T01:03:05.517Z,7.43
2019-03-05T01:06:23.904Z,6.70
2019-03-05T01:08:58.329Z,7.87
2019-03-05T01:11:28.009Z,6.40
2019-03-05T01:13:57.787Z,6.83
2019-03-05T01:16:29.281Z,6.10
2019-03-05T01:18:59.082Z,8.03
2019-03-05T01:21:28.660Z,7.30
2019-03-05T01:23:58.398Z,8.00
2019-03-05T01:26:28.040Z,6.97
2019-03-05T01:28:57.671Z,7.67
2019-03-05T01:31:45.269Z,7.13
2019-03-05T01:37:09.349Z,6.23
2019-03-05T01:39:43.433Z,7.00
2019-03-05T01:42:13.184Z,6.67
2019-03-05T01:44:43.638Z,7.00
2019-03-05T01:47:13.295Z,6.90
2019-03-05T01:49:43.006Z,6.80
2019-03-05T01:52:12.646Z,7.70
2019-03-05T01:54:42.362Z,6.17
2019-03-05T01:57:12.031Z,7.00
2019-03-05T01:59:41.604Z,7.80
2019-03-05T02:02:11.314Z,7.10
2019-03-05T02:04:40.918Z,7.10
2019-03-05T02:07:12.072Z,7.30
2019-03-05T02:09:41.705Z,7.73
2019-03-05T02:12:11.449Z,6.97
2019-03-05T02:14:41.458Z,7.47
2019-03-05T02:17:10.979Z,6.77
2019-03-05T02:19:44.053Z,6.73
2019-03-05T02:22:23.863Z,5.73
2019-03-05T02:25:06.798Z,5.83
2019-03-05T02:28:14.397Z,5.80
2019-03-05T02:34:14.179Z,3.83
2019-03-05T02:37:06.482Z,3.87
2019-03-05T02:39:55.948Z,3.42
2019-03-05T02:42:36.022Z,3.13
2019-03-05T02:45:42.922Z,2.77
2019-03-05T02:48:32.253Z,2.80
2019-03-05T02:51:13.370Z,2.73
2019-03-05T02:53:59.562Z,3.37
2019-03-05T02:57:10.510Z,2.93
2019-03-05T02:59:40.334Z,2.90
2019-03-05T03:02:28.117Z,2.77
2019-03-05T03:05:02.079Z,3.63
2019-03-05T03:07:31.766Z,3.07
2019-03-05T03:10:20.807Z,3.10
2019-03-05T03:12:50.540Z,3.37
2019-03-05T03:15:21.110Z,3.70
2019-03-05T03:17:50.924Z,3.00
2019-03-05T03:20:24.361Z,3.00
2019-03-05T03:22:54.095Z,3.67
2019-03-05T03:25:23.974Z,3.20
2019-03-05T03:27:53.835Z,4.20
2019-03-05T03:30:25.639Z,4.87
2019-03-05T03:32:55.490Z,5.90
2019-03-05T03:35:32.404Z,5.73
2019-03-05T03:38:02.051Z,5.83
2019-03-05T03:40:31.763Z,6.50
2019-03-05T03:43:01.617Z,6.90
2019-03-05T03:45:31.242Z,7.10
2019-03-05T03:48:00.890Z,7.90
2019-03-05T03:50:31.563Z,8.10
2019-03-05T03:53:01.736Z,7.70
2019-03-05T03:55:32.145Z,8.43
2019-03-05T03:58:01.906Z,7.80
2019-03-05T04:00:31.581Z,8.77
2019-03-05T04:03:01.147Z,8.17
2019-03-05T04:05:31.287Z,9.20
2019-03-05T04:08:01.071Z,8.43
2019-03-05T04:10:30.836Z,7.93
2019-03-05T04:13:00.991Z,7.90
2019-03-05T04:15:30.670Z,7.23
2019-03-05T04:18:02.351Z,6.47
2019-03-05T04:20:33.155Z,6.00
2019-03-05T04:23:02.805Z,6.53
2019-03-05T04:25:32.632Z,6.58
2019-03-05T04:28:02.623Z,6.30
2019-03-05T04:30:32.311Z,5.90
2019-03-05T04:33:01.807Z,5.97
2019-03-05T04:35:31.537Z,4.60
2019-03-05T04:38:02.731Z,4.63
2019-03-05T04:40:32.334Z,3.37
2019-03-05T04:43:01.960Z,3.52
2019-03-05T04:45:44.147Z,3.67
2019-03-05T04:48:14.560Z,3.30
2019-03-05T04:50:51.690Z,3.53
2019-03-05T04:53:21.332Z,3.83
2019-03-05T04:55:51.230Z,3.53
2019-03-05T04:58:20.907Z,4.40
2019-03-05T05:00:50.821Z,4.92
2019-03-05T05:03:20.542Z,3.67
2019-03-05T05:05:50.290Z,4.00
2019-03-05T05:08:20.804Z,3.40
2019-03-05T05:10:50.448Z,3.90
2019-03-05T05:13:20.106Z,3.47
2019-03-05T05:15:49.657Z,3.50
2019-03-05T05:18:19.257Z,3.00
2019-03-05T05:20:49.326Z,2.80
2019-03-05T05:23:18.876Z,2.90
2019-03-05T05:25:48.634Z,2.60
2019-03-05T05:28:18.223Z,2.85
2019-03-05T05:30:49.744Z,3.17
2019-03-05T05:33:19.448Z,3.27
2019-03-05T05:35:49.124Z,3.60
2019-03-05T05:38:18.785Z,3.70
2019-03-05T05:40:52.072Z,3.17
2019-03-05T05:43:31.197Z,2.87
2019-03-05T05:46:00.812Z,3.00
2019-03-05T05:48:30.411Z,3.20
2019-03-05T05:51:00.750Z,2.42
2019-03-05T05:53:30.350Z,2.80
2019-03-05T05:56:00.002Z,3.27
2019-03-05T05:58:29.642Z,2.35
2019-03-05T06:01:00.965Z,2.58
2019-03-05T06:03:30.976Z,2.80
2019-03-05T06:06:01.644Z,2.60
2019-03-05T06:08:32.005Z,2.45
2019-03-05T06:11:01.605Z,2.92
2019-03-05T06:13:31.349Z,2.97
2019-03-05T06:16:01.032Z,2.87
2019-03-05T06:18:30.707Z,2.90
2019-03-05T06:21:01.743Z,3.20
2019-03-05T06:23:31.485Z,3.40
2019-03-05T06:26:01.155Z,2.80
2019-03-05T06:28:31.213Z,3.62
2019-03-05T06:31:01.072Z,3.40
2019-03-05T06:33:30.800Z,3.10
2019-03-05T06:36:00.617Z,3.30
2019-03-05T06:38:30.239Z,3.73
2019-03-05T06:41:00.010Z,3.37
2019-03-05T06:43:29.643Z,2.90
2019-03-05T06:45:59.338Z,3.95
2019-03-05T06:48:28.952Z,3.10
2019-03-05T06:51:00.230Z,3.80
2019-03-05T06:53:29.924Z,2.60
2019-03-05T06:55:59.556Z,3.02
2019-03-05T06:58:29.319Z,3.57
2019-03-05T07:00:58.994Z,3.67
2019-03-05T07:03:28.655Z,3.47
2019-03-05T07:06:44.281Z,3.53
2019-03-05T07:09:36.714Z,3.47
2019-03-05T07:12:31.229Z,3.20
2019-03-05T07:15:29.651Z,4.50
2019-03-05T07:18:03.916Z,3.63
2019-03-05T07:20:59.445Z,3.80
2019-03-05T07:23:56.621Z,4.10
2019-03-05T07:26:26.479Z,3.60
2019-03-05T07:28:56.556Z,4.00
2019-03-05T07:31:26.234Z,3.50
2019-03-05T07:33:55.857Z,3.70
2019-03-05T07:36:25.807Z,3.23
2019-03-05T07:38:55.674Z,3.93
2019-03-05T07:41:25.483Z,3.27
2019-03-05T07:43:55.330Z,3.20
2019-03-05T07:46:25.147Z,3.80
2019-03-05T07:48:54.697Z,3.07
2019-03-05T07:51:24.411Z,3.70
2019-03-05T07:53:54.207Z,3.43
2019-03-05T07:56:23.882Z,3.57
2019-03-05T07:58:53.671Z,6.10
2019-03-05T08:01:23.571Z,3.37
2019-03-05T08:03:53.400Z,3.17
2019-03-05T08:06:22.988Z,3.13
2019-03-05T08:09:29.712Z,3.53
2019-03-05T08:12:34.002Z,3.33
2019-03-05T08:15:30.517Z,5.13
2019-03-05T08:18:00.172Z,2.63
2019-03-05T08:20:29.945Z,3.80
2019-03-05T08:23:01.336Z,3.60
2019-03-05T08:25:31.042Z,4.53
2019-03-05T08:28:00.827Z,2.93
2019-03-05T08:30:31.084Z,3.50
2019-03-05T08:33:01.390Z,3.40
2019-03-05T08:35:31.013Z,3.43
2019-03-05T08:38:00.881Z,4.63
2019-03-05T08:40:33.003Z,3.60
2019-03-05T08:43:02.753Z,3.90
2019-03-05T08:45:32.636Z,3.60
2019-03-05T08:48:02.376Z,3.63
2019-03-05T08:50:31.991Z,3.83
2019-03-05T08:53:01.602Z,3.90
2019-03-05T08:55:31.428Z,3.23
2019-03-05T08:58:01.162Z,3.50
2019-03-05T09:00:30.999Z,3.77
2019-03-05T09:03:00.653Z,3.80
2019-03-05T09:05:30.422Z,3.13
2019-03-05T09:08:00.481Z,3.80
2019-03-05T09:10:31.062Z,3.97
2019-03-05T09:13:00.856Z,3.70
2019-03-05T09:15:30.786Z,3.23
2019-03-05T09:18:00.465Z,4.03
2019-03-05T09:20:30.351Z,4.03
2019-03-05T09:23:00.171Z,3.17
2019-03-05T09:25:30.334Z,3.97
2019-03-05T09:28:00.085Z,3.97
2019-03-05T09:30:31.720Z,4.00
2019-03-05T09:33:01.465Z,3.40
2019-03-05T09:35:31.175Z,3.40
2019-03-05T09:38:00.874Z,4.23
2019-03-05T09:40:33.051Z,4.00
2019-03-05T09:43:02.853Z,3.27
2019-03-05T09:45:32.880Z,3.70
2019-03-05T09:48:02.645Z,4.53
2019-03-05T09:50:32.444Z,3.20
2019-03-05T09:53:02.532Z,3.17
2019-03-05T09:55:33.887Z,3.17
2019-03-05T09:58:07.884Z,3.73
2019-03-05T10:00:35.911Z,3.17
2019-03-05T10:03:07.602Z,6.90
2019-03-05T10:05:37.308Z,3.50
2019-03-05T10:08:07.382Z,3.27
2019-03-05T10:10:37.226Z,3.90
2019-03-05T10:13:07.248Z,4.20
2019-03-05T10:15:37.134Z,4.10
2019-03-05T10:18:12.819Z,4.17
2019-03-05T10:20:38.376Z,4.17
2019-03-05T10:23:10.977Z,3.73
2019-03-05T10:25:40.744Z,3.00
2019-03-05T10:28:10.530Z,3.67
2019-03-05T10:30:46.841Z,3.57
2019-03-05T10:33:18.115Z,3.83
2019-03-05T10:35:47.922Z,3.30
2019-03-05T10:38:17.810Z,3.67
2019-03-05T10:40:54.321Z,3.77
2019-03-05T10:43:24.358Z,3.90
2019-03-05T10:45:54.111Z,3.90
2019-03-05T10:48:26.112Z,3.40
2019-03-05T10:50:56.694Z,3.60
2019-03-05T10:53:26.860Z,3.53
2019-03-05T10:55:56.562Z,3.67
2019-03-05T10:58:33.963Z,4.03
2019-03-05T11:00:58.255Z,4.17
2019-03-05T11:03:32.014Z,3.83
2019-03-05T11:06:03.088Z,4.00
2019-03-05T11:08:32.871Z,3.73
2019-03-05T11:11:13.116Z,3.63
2019-03-05T11:13:36.162Z,3.73
2019-03-05T11:16:07.669Z,3.47
2019-03-05T11:18:38.726Z,3.83
2019-03-05T11:21:08.621Z,3.40
2019-03-05T11:23:38.288Z,3.50
2019-03-05T11:26:10.871Z,3.90
2019-03-05T11:28:40.654Z,4.80
2019-03-05T11:31:11.412Z,3.97
2019-03-05T11:33:41.235Z,3.43
2019-03-05T11:36:12.679Z,3.90
2019-03-05T11:38:42.675Z,2.77
2019-03-05T11:41:12.634Z,3.87
2019-03-05T11:43:42.360Z,2.87
2019-03-05T11:46:18.125Z,3.33
2019-03-05T11:48:47.924Z,3.00
2019-03-05T11:51:17.830Z,3.10
2019-03-05T11:53:47.558Z,3.10
2019-03-05T11:56:17.414Z,2.67
2019-03-05T11:58:47.206Z,3.63
2019-03-05T12:01:18.878Z,3.33
2019-03-05T12:03:48.996Z,3.87
2019-03-05T12:06:18.752Z,3.80
2019-03-05T12:08:48.646Z,3.27
2019-03-05T12:11:18.548Z,2.60
2019-03-05T12:13:48.203Z,2.77
2019-03-05T12:16:17.915Z,3.57
2019-03-05T12:18:47.513Z,3.77
2019-03-05T12:21:19.646Z,3.60
2019-03-05T12:23:49.437Z,3.20
2019-03-05T12:26:19.100Z,4.00
2019-03-05T12:28:49.355Z,4.07
2019-03-05T12:31:19.539Z,4.90
2019-03-05T12:33:49.252Z,3.93
2019-03-05T12:36:18.957Z,2.70
2019-03-05T12:38:48.665Z,2.00
2019-03-05T12:41:18.375Z,2.00
2019-03-05T12:43:48.132Z,2.07
2019-03-05T12:46:19.668Z,2.80
2019-03-05T12:48:50.888Z,3.33
2019-03-05T12:51:20.572Z,3.63
2019-03-05T12:53:50.357Z,6.60
2019-03-05T12:56:23.820Z,3.30
2019-03-05T12:58:51.727Z,2.73
2019-03-05T13:01:21.633Z,2.40
2019-03-05T13:03:51.484Z,2.07
2019-03-05T13:06:21.307Z,1.90
2019-03-05T13:08:51.546Z,1.80
2019-03-05T13:11:21.816Z,2.07
2019-03-05T13:14:05.404Z,2.20
2019-03-05T13:16:24.412Z,2.00
2019-03-05T13:18:54.213Z,2.43
2019-03-05T13:21:23.927Z,1.47
2019-03-05T13:23:53.691Z,1.70
2019-03-05T13:26:23.476Z,2.00
2019-03-05T13:28:53.058Z,1.23
2019-03-05T13:31:22.799Z,1.60
2019-03-05T13:33:54.014Z,2.00
2019-03-05T13:36:23.859Z,2.53
2019-03-05T13:38:53.735Z,1.87
2019-03-05T13:41:23.553Z,1.57
2019-03-05T13:43:55.482Z,1.40
2019-03-05T13:46:25.939Z,1.33
2019-03-05T13:49:14.413Z,1.30
2019-03-05T13:52:09.130Z,1.40
2019-03-05T13:55:23.543Z,1.57
2019-03-05T13:58:17.261Z,1.43
2019-03-05T14:00:47.037Z,1.60
2019-03-05T14:03:24.698Z,2.03
2019-03-05T14:06:13.835Z,1.60
2019-03-05T14:08:54.021Z,1.67
2019-03-05T14:11:23.774Z,1.60
2019-03-05T14:13:53.670Z,1.67
2019-03-05T14:16:25.519Z,1.17
2019-03-05T14:18:55.252Z,1.63
2019-03-05T14:21:25.032Z,1.70
2019-03-05T14:23:54.934Z,1.37
2019-03-05T14:26:24.928Z,1.50
2019-03-05T14:28:54.662Z,1.13
2019-03-05T14:31:24.757Z,1.83
2019-03-05T14:33:54.473Z,2.13
2019-03-05T14:36:24.512Z,3.03
2019-03-05T14:38:54.544Z,1.80
2019-03-05T14:41:25.155Z,2.07
2019-03-05T14:43:55.204Z,1.83
2019-03-05T14:46:25.290Z,1.90
2019-03-05T14:48:55.193Z,1.83
2019-03-05T14:51:25.340Z,1.97
2019-03-05T14:53:55.337Z,2.00
2019-03-05T14:56:25.298Z,2.10
2019-03-05T14:58:55.160Z,2.03
2019-03-05T15:01:25.165Z,2.60
2019-03-05T15:03:55.078Z,2.50
2019-03-05T15:06:25.081Z,1.90
2019-03-05T15:08:54.832Z,1.60
2019-03-05T15:11:24.743Z,2.30
2019-03-05T15:13:54.600Z,2.10
2019-03-05T15:16:24.573Z,3.20
2019-03-05T15:18:54.474Z,2.10
2019-03-05T15:21:24.234Z,1.90
2019-03-05T15:23:54.525Z,2.17
2019-03-05T15:26:24.339Z,2.40
2019-03-05T15:28:56.448Z,2.07
2019-03-05T15:31:25.802Z,1.90
2019-03-05T15:33:57.690Z,2.20
2019-03-05T15:36:27.550Z,2.30
2019-03-05T15:38:58.089Z,1.73
2019-03-05T15:41:27.993Z,2.77
2019-03-05T15:43:57.739Z,2.60
2019-03-05T15:46:27.819Z,2.70
2019-03-05T15:48:57.651Z,2.67
2019-03-05T15:51:27.330Z,2.67
2019-03-05T15:53:57.416Z,2.43
2019-03-05T15:56:27.161Z,2.40
2019-03-05T15:58:57.025Z,2.50
2019-03-05T16:01:27.394Z,2.43
2019-03-05T16:03:57.130Z,2.90
2019-03-05T16:06:30.170Z,2.67
2019-03-05T16:09:02.195Z,2.17
2019-03-05T16:11:30.252Z,2.30
2019-03-05T16:14:01.372Z,1.90
2019-03-05T16:16:32.023Z,1.90
2019-03-05T16:19:01.868Z,2.43
2019-03-05T16:21:32.581Z,2.03
2019-03-05T16:24:02.849Z,2.30
2019-03-05T16:26:33.195Z,2.30
2019-03-05T16:29:03.076Z,2.57
2019-03-05T16:31:41.019Z,2.60
2019-03-05T16:34:18.321Z,2.70
2019-03-05T16:36:49.852Z,2.83
2019-03-05T16:39:27.466Z,3.30
2019-03-05T16:41:58.293Z,2.90
2019-03-05T16:44:28.326Z,2.53
2019-03-05T16:47:02.740Z,2.70
2019-03-05T16:49:50.852Z,2.57
2019-03-05T16:52:25.042Z,3.90
2019-03-05T16:55:05.638Z,2.30
2019-03-05T16:57:37.039Z,3.23
2019-03-05T17:00:15.346Z,3.73
2019-03-05T17:02:47.886Z,2.53
2019-03-05T17:05:32.744Z,2.80
2019-03-05T17:08:10.467Z,4.30
2019-03-05T17:10:52.337Z,3.90
2019-03-05T17:13:22.149Z,3.53
2019-03-05T17:15:51.902Z,3.70
2019-03-05T17:18:21.728Z,3.30
2019-03-05T17:20:51.387Z,4.63
2019-03-05T17:23:21.095Z,5.33
2019-03-05T17:25:52.375Z,4.33
2019-03-05T17:28:22.113Z,4.33
2019-03-05T17:30:51.862Z,3.90
2019-03-05T17:33:22.279Z,4.27
2019-03-05T17:35:51.949Z,3.27
2019-03-05T17:38:23.707Z,3.97
2019-03-05T17:40:55.047Z,4.60
2019-03-05T17:43:25.424Z,3.83
2019-03-05T17:45:56.639Z,3.20
2019-03-05T17:48:26.292Z,4.17
2019-03-05T17:50:56.029Z,4.10
2019-03-05T17:53:25.916Z,4.57
2019-03-05T17:55:57.235Z,4.87
2019-03-05T17:58:26.849Z,4.60
2019-03-05T18:00:57.565Z,4.67
2019-03-05T18:03:27.365Z,5.27
2019-03-05T18:05:56.975Z,4.90
2019-03-05T18:08:26.855Z,5.53
2019-03-05T18:10:56.658Z,5.33
2019-03-05T18:13:26.494Z,5.37
2019-03-05T18:15:56.299Z,5.47
2019-03-05T18:18:26.780Z,5.73
2019-03-05T18:20:56.699Z,5.90
2019-03-05T18:23:26.835Z,5.30
2019-03-05T18:25:57.168Z,6.10
2019-03-05T18:28:27.483Z,5.27
2019-03-05T18:30:59.047Z,5.43
2019-03-05T18:33:29.571Z,5.30
2019-03-05T18:35:59.773Z,5.87
2019-03-05T18:38:29.719Z,6.80
2019-03-05T18:41:01.067Z,7.20
2019-03-05T18:43:33.981Z,6.63
2019-03-05T18:46:03.991Z,7.70
2019-03-05T18:48:34.498Z,7.07
2019-03-05T18:51:04.873Z,7.47
2019-03-05T18:53:34.962Z,6.90
2019-03-05T18:56:05.652Z,7.57
2019-03-05T18:58:35.731Z,6.45
2019-03-05T19:01:06.530Z,7.25
2019-03-05T19:03:36.813Z,6.27
2019-03-05T19:06:06.862Z,6.67
2019-03-05T19:08:36.911Z,6.80
2019-03-05T19:11:06.713Z,7.33
2019-03-05T19:13:36.386Z,6.12
2019-03-05T19:16:06.455Z,6.83
2019-03-05T19:18:36.372Z,6.58
2019-03-05T19:21:06.108Z,6.80
2019-03-05T19:23:37.317Z,6.62
2019-03-05T19:26:08.121Z,5.87
2019-03-05T19:28:37.928Z,6.10
2019-03-05T19:31:07.891Z,5.30
2019-03-05T19:33:38.139Z,5.03
2019-03-05T19:36:07.976Z,5.70
2019-03-05T19:38:37.706Z,5.53
2019-03-05T19:41:27.320Z,5.70
2019-03-05T19:43:57.478Z,5.70
2019-03-05T19:46:27.299Z,5.08
2019-03-05T19:48:57.236Z,6.00
2019-03-05T19:51:27.341Z,6.40
2019-03-05T19:53:57.132Z,7.03
2019-03-05T19:56:27.022Z,6.62
2019-03-05T19:58:57.213Z,7.12
2019-03-05T20:01:28.621Z,6.80
2019-03-05T20:04:00.341Z,8.30
2019-03-05T20:06:32.047Z,6.70
2019-03-05T20:09:01.902Z,8.30
2019-03-05T20:11:31.987Z,7.10
2019-03-05T20:14:01.801Z,7.30
2019-03-05T20:16:31.735Z,7.10
2019-03-05T20:19:01.698Z,7.60
2019-03-05T20:21:31.433Z,7.92
2019-03-05T20:24:01.567Z,8.83
2019-03-05T20:26:31.258Z,7.92
2019-03-05T20:29:02.878Z,8.40
2019-03-05T20:31:32.560Z,8.10
2019-03-05T20:34:02.438Z,8.40
2019-03-05T20:36:32.076Z,8.23
2019-03-05T20:39:02.259Z,8.30
2019-03-05T20:41:32.082Z,8.65
2019-03-05T20:44:01.892Z,8.55
2019-03-05T20:46:31.836Z,8.28
2019-03-05T20:49:01.534Z,8.70
2019-03-05T20:51:31.664Z,8.48
2019-03-05T20:54:01.495Z,8.90
2019-03-05T20:56:31.501Z,8.35
2019-03-05T20:59:01.175Z,7.90
2019-03-05T21:01:31.789Z,9.00
2019-03-05T21:04:01.625Z,8.50
2019-03-05T21:06:31.481Z,9.30
2019-03-05T21:09:01.296Z,9.48
2019-03-05T21:11:31.676Z,9.10
2019-03-05T21:14:01.284Z,10.08
2019-03-05T21:16:31.236Z,9.00
2019-03-05T21:19:01.070Z,9.93
2019-03-05T21:21:33.384Z,9.95
2019-03-05T21:24:03.091Z,9.53
2019-03-05T21:26:32.737Z,9.50
2019-03-05T21:29:02.441Z,9.43
2019-03-05T21:31:32.297Z,10.15
2019-03-05T21:34:03.195Z,9.35
2019-03-05T21:36:32.992Z,10.20
2019-03-05T21:39:04.750Z,11.05
2019-03-05T21:41:35.061Z,9.40
2019-03-05T21:44:05.198Z,10.10
2019-03-05T21:46:35.015Z,10.20
2019-03-05T21:49:06.277Z,10.72
2019-03-05T21:51:36.607Z,9.90
2019-03-05T21:54:06.692Z,10.25
2019-03-05T21:56:36.418Z,9.75
2019-03-05T21:59:06.094Z,10.28
2019-03-05T22:01:35.897Z,10.90
2019-03-05T22:04:05.698Z,10.45
2019-03-05T22:06:54.887Z,10.30
2019-03-05T22:09:24.739Z,10.90
2019-03-05T22:11:54.302Z,10.25
2019-03-05T22:14:24.005Z,10.38
2019-03-05T22:16:53.775Z,10.28
2019-03-05T22:19:23.636Z,10.50
2019-03-05T22:21:53.691Z,9.40
2019-03-05T22:24:23.369Z,11.15
2019-03-05T22:26:53.063Z,10.98
2019-03-05T22:29:22.660Z,12.43
2019-03-05T22:31:52.673Z,11.73
2019-03-05T22:34:22.370Z,11.53
2019-03-05T22:36:51.989Z,12.65
2019-03-05T22:39:21.803Z,12.18
2019-03-05T22:41:51.509Z,12.95
2019-03-05T22:44:21.217Z,13.13
2019-03-05T22:46:51.378Z,12.43
2019-03-05T22:49:20.892Z,13.70
2019-03-05T22:51:50.587Z,12.90
2019-03-05T22:54:20.441Z,12.78
2019-03-05T22:56:50.397Z,11.68
2019-03-05T22:59:19.986Z,12.70
2019-03-05T23:01:49.607Z,13.45
2019-03-05T23:04:20.556Z,11.00
2019-03-05T23:06:50.730Z,12.28
2019-03-05T23:09:22.920Z,11.83
2019-03-05T23:11:52.703Z,10.50
2019-03-05T23:14:22.582Z,12.50
2019-03-05T23:16:52.190Z,12.28
2019-03-05T23:19:22.480Z,11.80
2019-03-05T23:21:52.352Z,11.48
2019-03-05T23:24:22.279Z,12.10
2019-03-05T23:26:52.015Z,10.82
2019-03-05T23:29:23.821Z,11.70
2019-03-05T23:31:53.805Z,11.05
2019-03-05T23:34:23.606Z,10.75
2019-03-05T23:36:54.920Z,10.15
2019-03-05T23:39:24.699Z,10.90
2019-03-05T23:41:54.621Z,11.18
2019-03-05T23:44:24.416Z,10.90
2019-03-05T23:46:54.046Z,11.00
2019-03-05T23:49:23.569Z,11.43
2019-03-05T23:51:53.164Z,11.18
2019-03-05T23:54:23.392Z,10.60
2019-03-05T23:56:53.344Z,10.32
2019-03-05T23:59:23.545Z,11.18
